sensor_id;sensor_type;location;lat;lon;timestamp;P1;durP1;ratioP1;P2;durP2;ratioP2
29302;SDS011;60019;45.556;12.004;2023-10-09T00:03:07;39.95;;;24.35;;
29302;SDS011;60019;45.556;12.004;2023-10-09T00:09:09;36.90;;;25.90;;
29302;SDS011;60019;45.556;12.004;2023-10-09T00:15:23;36.10;;;26.00;;
29302;SDS011;60019;45.556;12.004;2023-10-09T00:21:28;39.53;;;26.60;;
29302;SDS011;60019;45.556;12.004;2023-10-09T00:27:36;36.05;;;25.38;;
29302;SDS011;60019;45.556;12.004;2023-10-09T00:33:43;39.92;;;26.52;;
29302;SDS011;60019;45.556;12.004;2023-10-09T00:39:45;36.72;;;23.23;;
29302;SDS011;60019;45.556;12.004;2023-10-09T00:45:49;40.85;;;25.92;;
29302;SDS011;60019;45.556;12.004;2023-10-09T00:51:51;35.00;;;23.92;;
29302;SDS011;60019;45.556;12.004;2023-10-09T00:57:57;36.03;;;23.58;;
29302;SDS011;60019;45.556;12.004;2023-10-09T01:04:01;38.42;;;26.25;;
29302;SDS011;60019;45.556;12.004;2023-10-09T01:10:15;36.45;;;25.17;;
29302;SDS011;60019;45.556;12.004;2023-10-09T01:16:17;35.90;;;24.27;;
29302;SDS011;60019;45.556;12.004;2023-10-09T01:22:19;39.28;;;24.10;;
29302;SDS011;60019;45.556;12.004;2023-10-09T01:28:22;38.08;;;25.80;;
29302;SDS011;60019;45.556;12.004;2023-10-09T01:34:26;33.78;;;22.10;;
29302;SDS011;60019;45.556;12.004;2023-10-09T01:40:43;36.75;;;25.70;;
29302;SDS011;60019;45.556;12.004;2023-10-09T01:46:45;39.72;;;25.73;;
29302;SDS011;60019;45.556;12.004;2023-10-09T01:52:47;41.22;;;25.05;;
29302;SDS011;60019;45.556;12.004;2023-10-09T01:58:49;37.15;;;25.23;;
29302;SDS011;60019;45.556;12.004;2023-10-09T02:04:52;36.30;;;25.00;;
29302;SDS011;60019;45.556;12.004;2023-10-09T02:11:15;35.70;;;24.00;;
29302;SDS011;60019;45.556;12.004;2023-10-09T02:17:25;36.33;;;22.08;;
29302;SDS011;60019;45.556;12.004;2023-10-09T02:23:30;37.72;;;24.63;;
29302;SDS011;60019;45.556;12.004;2023-10-09T02:29:47;35.08;;;23.42;;
29302;SDS011;60019;45.556;12.004;2023-10-09T02:35:48;31.50;;;21.67;;
29302;SDS011;60019;45.556;12.004;2023-10-09T02:41:52;30.95;;;22.98;;
29302;SDS011;60019;45.556;12.004;2023-10-09T02:48:00;36.85;;;24.05;;
29302;SDS011;60019;45.556;12.004;2023-10-09T02:54:11;33.40;;;22.80;;
29302;SDS011;60019;45.556;12.004;2023-10-09T03:00:19;34.72;;;22.70;;
29302;SDS011;60019;45.556;12.004;2023-10-09T03:06:29;32.15;;;21.63;;
29302;SDS011;60019;45.556;12.004;2023-10-09T03:12:37;31.95;;;21.88;;
29302;SDS011;60019;45.556;12.004;2023-10-09T03:18:40;39.00;;;24.95;;
29302;SDS011;60019;45.556;12.004;2023-10-09T03:24:42;33.65;;;23.58;;
29302;SDS011;60019;45.556;12.004;2023-10-09T03:30:45;29.13;;;20.85;;
29302;SDS011;60019;45.556;12.004;2023-10-09T03:36:48;32.22;;;21.48;;
29302;SDS011;60019;45.556;12.004;2023-10-09T03:42:52;37.75;;;23.02;;
29302;SDS011;60019;45.556;12.004;2023-10-09T03:48:54;32.72;;;23.38;;
29302;SDS011;60019;45.556;12.004;2023-10-09T03:54:57;37.85;;;25.05;;
29302;SDS011;60019;45.556;12.004;2023-10-09T04:01:06;38.38;;;23.60;;
29302;SDS011;60019;45.556;12.004;2023-10-09T04:07:08;38.42;;;25.35;;
29302;SDS011;60019;45.556;12.004;2023-10-09T04:13:10;34.53;;;24.52;;
29302;SDS011;60019;45.556;12.004;2023-10-09T04:19:18;40.17;;;26.02;;
29302;SDS011;60019;45.556;12.004;2023-10-09T04:25:23;39.63;;;26.08;;
29302;SDS011;60019;45.556;12.004;2023-10-09T04:31:29;36.33;;;24.55;;
29302;SDS011;60019;45.556;12.004;2023-10-09T04:37:32;32.28;;;23.02;;
29302;SDS011;60019;45.556;12.004;2023-10-09T04:43:38;35.03;;;23.45;;
29302;SDS011;60019;45.556;12.004;2023-10-09T04:49:45;42.83;;;25.20;;
29302;SDS011;60019;45.556;12.004;2023-10-09T04:56:02;32.70;;;22.67;;
29302;SDS011;60019;45.556;12.004;2023-10-09T05:02:06;36.90;;;23.27;;
29302;SDS011;60019;45.556;12.004;2023-10-09T05:08:19;54.03;;;33.75;;
29302;SDS011;60019;45.556;12.004;2023-10-09T05:14:21;42.20;;;28.35;;
29302;SDS011;60019;45.556;12.004;2023-10-09T05:20:39;53.38;;;33.92;;
29302;SDS011;60019;45.556;12.004;2023-10-09T05:26:56;62.00;;;40.38;;
29302;SDS011;60019;45.556;12.004;2023-10-09T05:33:18;39.85;;;26.20;;
29302;SDS011;60019;45.556;12.004;2023-10-09T05:39:28;43.53;;;26.30;;
29302;SDS011;60019;45.556;12.004;2023-10-09T05:45:41;41.78;;;27.30;;
29302;SDS011;60019;45.556;12.004;2023-10-09T05:58:23;40.10;;;24.88;;
29302;SDS011;60019;45.556;12.004;2023-10-09T06:05:03;35.72;;;24.35;;
29302;SDS011;60019;45.556;12.004;2023-10-09T06:11:09;40.33;;;25.60;;
29302;SDS011;60019;45.556;12.004;2023-10-09T06:17:30;34.33;;;22.10;;
29302;SDS011;60019;45.556;12.004;2023-10-09T06:23:44;32.70;;;21.83;;
29302;SDS011;60019;45.556;12.004;2023-10-09T06:30:05;39.80;;;25.30;;
29302;SDS011;60019;45.556;12.004;2023-10-09T06:36:13;34.78;;;21.73;;
29302;SDS011;60019;45.556;12.004;2023-10-09T06:42:18;55.97;;;35.22;;
29302;SDS011;60019;45.556;12.004;2023-10-09T06:48:45;39.28;;;24.38;;
29302;SDS011;60019;45.556;12.004;2023-10-09T06:54:56;44.15;;;26.23;;
29302;SDS011;60019;45.556;12.004;2023-10-09T07:00:58;33.78;;;22.33;;
29302;SDS011;60019;45.556;12.004;2023-10-09T07:07:20;47.38;;;28.45;;
29302;SDS011;60019;45.556;12.004;2023-10-09T07:13:25;32.30;;;21.75;;
29302;SDS011;60019;45.556;12.004;2023-10-09T07:19:28;28.90;;;20.25;;
29302;SDS011;60019;45.556;12.004;2023-10-09T07:25:36;30.92;;;21.30;;
29302;SDS011;60019;45.556;12.004;2023-10-09T07:31:58;46.30;;;28.58;;
29302;SDS011;60019;45.556;12.004;2023-10-09T07:44:15;55.75;;;31.40;;
29302;SDS011;60019;45.556;12.004;2023-10-09T07:50:20;27.83;;;18.67;;
29302;SDS011;60019;45.556;12.004;2023-10-09T07:56:26;31.77;;;19.55;;
29302;SDS011;60019;45.556;12.004;2023-10-09T08:02:31;32.95;;;22.13;;
29302;SDS011;60019;45.556;12.004;2023-10-09T08:08:33;30.13;;;20.25;;
29302;SDS011;60019;45.556;12.004;2023-10-09T08:14:35;26.13;;;18.27;;
29302;SDS011;60019;45.556;12.004;2023-10-09T08:20:37;39.88;;;22.85;;
29302;SDS011;60019;45.556;12.004;2023-10-09T08:26:57;23.15;;;15.75;;
29302;SDS011;60019;45.556;12.004;2023-10-09T08:33:18;22.70;;;14.38;;
29302;SDS011;60019;45.556;12.004;2023-10-09T08:39:28;25.98;;;14.98;;
29302;SDS011;60019;45.556;12.004;2023-10-09T08:45:37;24.13;;;16.23;;
29302;SDS011;60019;45.556;12.004;2023-10-09T08:51:42;21.02;;;14.65;;
29302;SDS011;60019;45.556;12.004;2023-10-09T08:57:46;28.25;;;15.98;;
29302;SDS011;60019;45.556;12.004;2023-10-09T09:03:49;34.88;;;23.73;;
29302;SDS011;60019;45.556;12.004;2023-10-09T09:09:57;52.80;;;33.13;;
29302;SDS011;60019;45.556;12.004;2023-10-09T09:16:04;41.45;;;23.33;;
29302;SDS011;60019;45.556;12.004;2023-10-09T09:22:07;37.42;;;25.33;;
29302;SDS011;60019;45.556;12.004;2023-10-09T09:28:13;34.17;;;21.85;;
29302;SDS011;60019;45.556;12.004;2023-10-09T09:34:22;38.30;;;25.57;;
29302;SDS011;60019;45.556;12.004;2023-10-09T09:40:26;47.10;;;27.23;;
29302;SDS011;60019;45.556;12.004;2023-10-09T09:46:33;39.95;;;24.45;;
29302;SDS011;60019;45.556;12.004;2023-10-09T09:52:36;41.72;;;26.02;;
29302;SDS011;60019;45.556;12.004;2023-10-09T09:58:41;33.65;;;22.48;;
29302;SDS011;60019;45.556;12.004;2023-10-09T10:04:44;36.90;;;23.35;;
29302;SDS011;60019;45.556;12.004;2023-10-09T10:10:50;41.90;;;25.27;;
29302;SDS011;60019;45.556;12.004;2023-10-09T10:17:05;49.80;;;29.25;;
29302;SDS011;60019;45.556;12.004;2023-10-09T10:23:17;42.10;;;24.65;;
29302;SDS011;60019;45.556;12.004;2023-10-09T10:29:21;66.13;;;38.50;;
29302;SDS011;60019;45.556;12.004;2023-10-09T10:35:23;37.67;;;26.80;;
29302;SDS011;60019;45.556;12.004;2023-10-09T10:41:40;45.33;;;27.98;;
29302;SDS011;60019;45.556;12.004;2023-10-09T10:47:54;37.50;;;25.70;;
29302;SDS011;60019;45.556;12.004;2023-10-09T10:53:59;55.05;;;33.25;;
29302;SDS011;60019;45.556;12.004;2023-10-09T11:00:16;42.30;;;26.35;;
29302;SDS011;60019;45.556;12.004;2023-10-09T11:06:37;48.00;;;30.83;;
29302;SDS011;60019;45.556;12.004;2023-10-09T11:18:46;46.90;;;30.20;;
29302;SDS011;60019;45.556;12.004;2023-10-09T11:24:48;63.25;;;40.45;;
29302;SDS011;60019;45.556;12.004;2023-10-09T11:31:11;50.95;;;30.25;;
29302;SDS011;60019;45.556;12.004;2023-10-09T11:37:13;53.08;;;31.90;;
29302;SDS011;60019;45.556;12.004;2023-10-09T11:43:44;74.70;;;38.30;;
29302;SDS011;60019;45.556;12.004;2023-10-09T11:49:56;62.50;;;37.95;;
29302;SDS011;60019;45.556;12.004;2023-10-09T11:56:01;52.92;;;34.58;;
29302;SDS011;60019;45.556;12.004;2023-10-09T12:02:07;57.47;;;34.47;;
29302;SDS011;60019;45.556;12.004;2023-10-09T12:08:15;49.05;;;29.83;;
29302;SDS011;60019;45.556;12.004;2023-10-09T12:14:17;62.03;;;38.80;;
29302;SDS011;60019;45.556;12.004;2023-10-09T12:20:24;52.35;;;33.38;;
29302;SDS011;60019;45.556;12.004;2023-10-09T12:26:32;39.75;;;25.80;;
29302;SDS011;60019;45.556;12.004;2023-10-09T12:32:35;54.00;;;30.42;;
29302;SDS011;60019;45.556;12.004;2023-10-09T12:38:37;62.42;;;33.83;;
29302;SDS011;60019;45.556;12.004;2023-10-09T12:44:46;46.63;;;27.33;;
29302;SDS011;60019;45.556;12.004;2023-10-09T12:50:49;48.88;;;29.35;;
29302;SDS011;60019;45.556;12.004;2023-10-09T12:56:54;49.75;;;33.78;;
29302;SDS011;60019;45.556;12.004;2023-10-09T13:02:56;61.15;;;34.60;;
29302;SDS011;60019;45.556;12.004;2023-10-09T13:09:01;38.85;;;23.27;;
29302;SDS011;60019;45.556;12.004;2023-10-09T13:15:08;73.25;;;43.28;;
29302;SDS011;60019;45.556;12.004;2023-10-09T13:21:10;56.80;;;34.78;;
29302;SDS011;60019;45.556;12.004;2023-10-09T13:27:12;45.95;;;26.65;;
29302;SDS011;60019;45.556;12.004;2023-10-09T13:33:18;56.78;;;34.15;;
29302;SDS011;60019;45.556;12.004;2023-10-09T13:39:22;50.22;;;31.88;;
29302;SDS011;60019;45.556;12.004;2023-10-09T13:45:27;50.47;;;31.33;;
29302;SDS011;60019;45.556;12.004;2023-10-09T13:51:29;37.45;;;22.70;;
29302;SDS011;60019;45.556;12.004;2023-10-09T13:57:34;35.10;;;22.38;;
29302;SDS011;60019;45.556;12.004;2023-10-09T14:03:36;37.72;;;23.38;;
29302;SDS011;60019;45.556;12.004;2023-10-09T14:09:39;33.83;;;24.58;;
29302;SDS011;60019;45.556;12.004;2023-10-09T14:15:56;41.00;;;25.95;;
29302;SDS011;60019;45.556;12.004;2023-10-09T14:22:00;34.55;;;22.15;;
29302;SDS011;60019;45.556;12.004;2023-10-09T14:28:06;40.15;;;26.45;;
29302;SDS011;60019;45.556;12.004;2023-10-09T14:34:11;41.08;;;25.67;;
29302;SDS011;60019;45.556;12.004;2023-10-09T14:40:13;43.25;;;27.13;;
29302;SDS011;60019;45.556;12.004;2023-10-09T14:46:14;43.85;;;25.60;;
29302;SDS011;60019;45.556;12.004;2023-10-09T14:52:21;36.42;;;23.88;;
29302;SDS011;60019;45.556;12.004;2023-10-09T14:58:25;40.78;;;25.20;;
29302;SDS011;60019;45.556;12.004;2023-10-09T15:04:26;37.13;;;24.65;;
29302;SDS011;60019;45.556;12.004;2023-10-09T15:10:28;40.63;;;28.00;;
29302;SDS011;60019;45.556;12.004;2023-10-09T15:16:30;45.10;;;30.33;;
29302;SDS011;60019;45.556;12.004;2023-10-09T15:22:32;39.92;;;26.15;;
29302;SDS011;60019;45.556;12.004;2023-10-09T15:28:37;44.00;;;25.98;;
29302;SDS011;60019;45.556;12.004;2023-10-09T15:34:41;48.17;;;28.25;;
29302;SDS011;60019;45.556;12.004;2023-10-09T15:40:44;48.92;;;30.33;;
29302;SDS011;60019;45.556;12.004;2023-10-09T15:46:48;56.45;;;31.60;;
29302;SDS011;60019;45.556;12.004;2023-10-09T15:52:53;42.13;;;27.40;;
29302;SDS011;60019;45.556;12.004;2023-10-09T15:58:55;41.28;;;27.05;;
29302;SDS011;60019;45.556;12.004;2023-10-09T16:04:57;40.03;;;25.50;;
29302;SDS011;60019;45.556;12.004;2023-10-09T16:11:00;42.90;;;28.38;;
29302;SDS011;60019;45.556;12.004;2023-10-09T16:17:02;36.63;;;22.73;;
29302;SDS011;60019;45.556;12.004;2023-10-09T16:23:07;36.13;;;24.65;;
29302;SDS011;60019;45.556;12.004;2023-10-09T16:29:10;35.30;;;23.60;;
29302;SDS011;60019;45.556;12.004;2023-10-09T16:35:12;34.78;;;24.27;;
29302;SDS011;60019;45.556;12.004;2023-10-09T16:41:14;37.58;;;23.02;;
29302;SDS011;60019;45.556;12.004;2023-10-09T16:47:17;38.13;;;23.33;;
29302;SDS011;60019;45.556;12.004;2023-10-09T16:53:19;31.73;;;23.33;;
29302;SDS011;60019;45.556;12.004;2023-10-09T16:59:21;32.42;;;22.83;;
29302;SDS011;60019;45.556;12.004;2023-10-09T17:05:23;37.75;;;25.88;;
29302;SDS011;60019;45.556;12.004;2023-10-09T17:11:33;40.53;;;26.67;;
29302;SDS011;60019;45.556;12.004;2023-10-09T17:17:37;38.90;;;27.75;;
29302;SDS011;60019;45.556;12.004;2023-10-09T17:23:43;47.88;;;31.25;;
29302;SDS011;60019;45.556;12.004;2023-10-09T17:29:47;41.88;;;30.23;;
29302;SDS011;60019;45.556;12.004;2023-10-09T17:35:49;43.35;;;28.60;;
29302;SDS011;60019;45.556;12.004;2023-10-09T17:41:51;48.10;;;32.33;;
29302;SDS011;60019;45.556;12.004;2023-10-09T17:47:53;52.70;;;33.13;;
29302;SDS011;60019;45.556;12.004;2023-10-09T17:53:56;53.30;;;33.33;;
29302;SDS011;60019;45.556;12.004;2023-10-09T17:59:58;46.80;;;31.33;;
29302;SDS011;60019;45.556;12.004;2023-10-09T18:06:00;50.85;;;33.53;;
29302;SDS011;60019;45.556;12.004;2023-10-09T18:12:04;69.85;;;42.30;;
29302;SDS011;60019;45.556;12.004;2023-10-09T18:18:07;99.57;;;57.58;;
29302;SDS011;60019;45.556;12.004;2023-10-09T18:24:12;74.97;;;42.70;;
29302;SDS011;60019;45.556;12.004;2023-10-09T18:30:16;68.70;;;41.90;;
29302;SDS011;60019;45.556;12.004;2023-10-09T18:36:18;60.05;;;37.25;;
29302;SDS011;60019;45.556;12.004;2023-10-09T18:42:20;82.18;;;51.40;;
29302;SDS011;60019;45.556;12.004;2023-10-09T18:48:23;75.18;;;48.78;;
29302;SDS011;60019;45.556;12.004;2023-10-09T18:54:28;77.43;;;46.88;;
29302;SDS011;60019;45.556;12.004;2023-10-09T19:00:30;79.82;;;46.50;;
29302;SDS011;60019;45.556;12.004;2023-10-09T19:06:32;71.43;;;39.50;;
29302;SDS011;60019;45.556;12.004;2023-10-09T19:12:37;59.95;;;37.53;;
29302;SDS011;60019;45.556;12.004;2023-10-09T19:18:41;68.43;;;41.00;;
29302;SDS011;60019;45.556;12.004;2023-10-09T19:24:44;66.18;;;40.63;;
29302;SDS011;60019;45.556;12.004;2023-10-09T19:30:47;75.10;;;44.72;;
29302;SDS011;60019;45.556;12.004;2023-10-09T19:36:50;77.55;;;43.67;;
29302;SDS011;60019;45.556;12.004;2023-10-09T19:42:53;77.55;;;44.90;;
29302;SDS011;60019;45.556;12.004;2023-10-09T19:48:55;71.10;;;42.30;;
29302;SDS011;60019;45.556;12.004;2023-10-09T19:54:57;80.55;;;47.42;;
29302;SDS011;60019;45.556;12.004;2023-10-09T20:00:59;67.45;;;39.55;;
29302;SDS011;60019;45.556;12.004;2023-10-09T20:07:01;77.25;;;47.72;;
29302;SDS011;60019;45.556;12.004;2023-10-09T20:13:03;78.82;;;46.58;;
29302;SDS011;60019;45.556;12.004;2023-10-09T20:19:05;84.50;;;47.40;;
29302;SDS011;60019;45.556;12.004;2023-10-09T20:25:09;72.63;;;44.25;;
29302;SDS011;60019;45.556;12.004;2023-10-09T20:31:13;82.25;;;46.47;;
29302;SDS011;60019;45.556;12.004;2023-10-09T20:37:15;83.57;;;48.08;;
29302;SDS011;60019;45.556;12.004;2023-10-09T20:43:17;87.60;;;50.22;;
29302;SDS011;60019;45.556;12.004;2023-10-09T20:49:19;77.88;;;46.40;;
29302;SDS011;60019;45.556;12.004;2023-10-09T20:55:21;76.65;;;47.38;;
29302;SDS011;60019;45.556;12.004;2023-10-09T21:01:26;78.25;;;46.08;;
29302;SDS011;60019;45.556;12.004;2023-10-09T21:07:28;79.18;;;48.42;;
29302;SDS011;60019;45.556;12.004;2023-10-09T21:13:30;76.72;;;47.45;;
29302;SDS011;60019;45.556;12.004;2023-10-09T21:35:06;113.18;;;66.60;;
29302;SDS011;60019;45.556;12.004;2023-10-09T21:41:17;94.35;;;58.47;;
29302;SDS011;60019;45.556;12.004;2023-10-09T21:47:22;82.38;;;49.92;;
29302;SDS011;60019;45.556;12.004;2023-10-09T21:53:24;87.30;;;52.40;;
29302;SDS011;60019;45.556;12.004;2023-10-09T21:59:28;77.22;;;45.90;;
29302;SDS011;60019;45.556;12.004;2023-10-09T22:05:31;72.80;;;45.05;;
29302;SDS011;60019;45.556;12.004;2023-10-09T22:11:33;68.18;;;41.20;;
29302;SDS011;60019;45.556;12.004;2023-10-09T22:17:36;71.10;;;42.22;;
29302;SDS011;60019;45.556;12.004;2023-10-09T22:23:44;59.63;;;39.50;;
29302;SDS011;60019;45.556;12.004;2023-10-09T22:29:53;73.55;;;41.90;;
29302;SDS011;60019;45.556;12.004;2023-10-09T22:35:55;64.90;;;40.22;;
29302;SDS011;60019;45.556;12.004;2023-10-09T22:42:01;57.47;;;37.50;;
29302;SDS011;60019;45.556;12.004;2023-10-09T22:48:04;62.58;;;36.03;;
29302;SDS011;60019;45.556;12.004;2023-10-09T22:54:07;59.88;;;35.95;;
29302;SDS011;60019;45.556;12.004;2023-10-09T23:00:15;60.42;;;37.67;;
29302;SDS011;60019;45.556;12.004;2023-10-09T23:06:40;62.25;;;37.78;;
29302;SDS011;60019;45.556;12.004;2023-10-09T23:12:45;58.85;;;34.50;;
29302;SDS011;60019;45.556;12.004;2023-10-09T23:18:49;60.67;;;35.88;;
29302;SDS011;60019;45.556;12.004;2023-10-09T23:31:34;53.55;;;33.65;;
29302;SDS011;60019;45.556;12.004;2023-10-09T23:37:36;50.78;;;31.83;;
29302;SDS011;60019;45.556;12.004;2023-10-09T23:43:38;52.95;;;33.42;;
29302;SDS011;60019;45.556;12.004;2023-10-09T23:49:46;46.40;;;29.45;;
29302;SDS011;60019;45.556;12.004;2023-10-09T23:55:49;53.80;;;32.55;;
